Cannon Air Force Base

About
Name: Cannon Air Force Base
Identifier:  CVS/KCVS
Local Time:  17. Aug 23:16 MDT
Location
Flights per Day
0 flights
Distance: 1,454km (903mi)
Punctuality
0% (0 flights per day delayed)
Delay Average: 10 minutes
Current Weather
 25 C (Humidity: 41%)
  3kt (5km/h / 3mph) from 180°
  Few clouds at 15,000 feet (4,572 meter)
  16km (10 mi.)
 METAR KCVS 180458Z AUTO 18003KT 10SM FEW150 25/11 A2992 RMK AO2 SLP061 T02450107 $

Current Flights

Departures
Number Departure To Airline
Arrivals
Number Arrival From Airline

Current Delays

Departures
N/A
Arrivals
N/A

Destinations

Top Destinations
Airport Flights
per week
Seats
per week
  Baltimore (BWI) 0 - 0 0
  Houston (IAH) 0 - 0 0
  Fort Campbell (HOP) 0 - 0 0

Airlines & Planes

Top Airlines
Airline Flights
per Day
Seats
per Day
  Atlas Air 0 -
Top Plane Types
Model Flights Seats
Boeing B767-300 0.1/day - 0
Boeing B747-400 0.0/day - 0